createdAt,value
2023-04-20T00:00:53.482Z,100393.06
2023-04-20T00:03:23.963Z,100380.91
2023-04-20T00:05:53.897Z,100374.84
2023-04-20T00:08:23.699Z,100352.56
2023-04-20T00:10:55.944Z,100340.44
2023-04-20T00:13:26.623Z,100340.03
2023-04-20T00:15:56.770Z,100312.13
2023-04-20T00:18:26.756Z,100296.34
2023-04-20T00:20:57.150Z,100289.06
2023-04-20T00:23:27.440Z,100280.16
2023-04-20T00:25:59.082Z,100287.88
2023-04-20T00:28:29.319Z,100283.00
2023-04-20T00:30:59.150Z,100308.09
2023-04-20T00:33:29.371Z,100336.00
2023-04-20T00:35:59.184Z,100378.91
2023-04-20T00:38:29.460Z,100410.47
2023-04-20T00:41:01.844Z,100384.97
2023-04-20T00:43:31.801Z,100376.84
2023-04-20T00:46:04.089Z,100391.41
2023-04-20T00:48:34.501Z,100399.91
2023-04-20T00:51:04.710Z,100403.94
2023-04-20T00:53:34.674Z,100426.19
2023-04-20T00:56:07.401Z,100451.66
2023-04-20T00:58:37.713Z,100468.25
2023-04-20T01:01:08.277Z,100476.75
2023-04-20T01:03:39.057Z,100467.84
2023-04-20T01:06:11.402Z,100448.00
2023-04-20T01:08:50.445Z,100437.09
2023-04-20T01:11:22.336Z,100403.53
2023-04-20T01:13:52.338Z,100407.59
2023-04-20T01:16:21.940Z,100403.13
2023-04-20T01:18:53.657Z,100395.84
2023-04-20T01:21:24.984Z,100432.22
2023-04-20T01:23:57.041Z,100480.34
2023-04-20T01:26:28.377Z,100444.75
2023-04-20T01:28:57.968Z,100401.50
2023-04-20T01:31:28.344Z,100384.53
2023-04-20T01:33:58.298Z,100398.25
2023-04-20T01:36:28.730Z,100418.88
2023-04-20T01:39:00.821Z,100417.25
2023-04-20T01:41:31.070Z,100355.38
2023-04-20T01:44:00.643Z,100302.03
2023-04-20T01:46:30.835Z,100265.63
2023-04-20T01:49:00.473Z,100272.53
2023-04-20T01:51:30.661Z,100296.75
2023-04-20T01:54:03.179Z,100355.38
2023-04-20T01:56:33.303Z,100376.41
2023-04-20T01:59:03.489Z,100338.41
2023-04-20T02:01:33.136Z,100341.63
2023-04-20T02:04:03.036Z,100357.38
2023-04-20T02:06:33.544Z,100356.59
2023-04-20T02:09:05.299Z,100359.00
2023-04-20T02:11:35.595Z,100403.06
2023-04-20T02:14:06.055Z,100441.06
2023-04-20T02:16:36.916Z,100406.28
2023-04-20T02:19:07.478Z,100371.53
2023-04-20T02:21:37.760Z,100376.38
2023-04-20T02:24:10.874Z,100425.69
2023-04-20T02:26:41.074Z,100458.03
2023-04-20T02:29:10.547Z,100447.09
2023-04-20T02:31:40.900Z,100482.25
2023-04-20T02:34:11.546Z,100502.06
2023-04-20T02:36:41.731Z,100530.34
2023-04-20T02:39:13.809Z,100531.56
2023-04-20T02:41:44.277Z,100514.19
2023-04-20T02:44:14.447Z,100500.44
2023-04-20T02:46:44.271Z,100432.91
2023-04-20T02:49:14.435Z,100344.78
2023-04-20T02:51:44.875Z,100241.34
2023-04-20T02:54:17.058Z,100302.78
2023-04-20T02:56:46.671Z,100327.81
2023-04-20T02:59:17.716Z,100365.78
2023-04-20T03:01:48.119Z,100404.59
2023-04-20T03:04:18.400Z,100390.41
2023-04-20T03:06:49.213Z,100387.22
2023-04-20T03:09:20.854Z,100398.91
2023-04-20T03:11:51.123Z,100437.72
2023-04-20T03:14:21.264Z,100466.41
2023-04-20T03:16:52.039Z,100475.25
2023-04-20T03:19:22.418Z,100472.06
2023-04-20T03:21:52.126Z,100465.16
2023-04-20T03:24:24.592Z,100462.72
2023-04-20T03:26:54.636Z,100461.50
2023-04-20T03:29:24.952Z,100476.03
2023-04-20T03:31:55.909Z,100476.44
2023-04-20T03:34:27.180Z,100473.19
2023-04-20T03:36:57.103Z,100471.56
2023-04-20T03:39:29.161Z,100450.97
2023-04-20T03:41:59.901Z,100459.03
2023-04-20T03:44:29.526Z,100461.06
2023-04-20T03:46:59.708Z,100442.47
2023-04-20T03:49:32.525Z,100457.41
2023-04-20T03:52:02.138Z,100474.78
2023-04-20T03:54:34.383Z,100480.81
2023-04-20T03:57:04.555Z,100471.53
2023-04-20T03:59:34.877Z,100478.81
2023-04-20T04:02:06.285Z,100465.88
2023-04-20T04:04:36.730Z,100449.69
2023-04-20T04:07:06.743Z,100456.59
2023-04-20T04:09:38.415Z,100461.84
2023-04-20T04:12:09.562Z,100463.84
2023-04-20T04:14:39.831Z,100469.50
2023-04-20T04:17:09.685Z,100477.97
2023-04-20T04:19:39.963Z,100469.50
2023-04-20T04:22:10.824Z,100478.41
2023-04-20T04:24:42.565Z,100487.72
2023-04-20T04:27:14.626Z,100487.72
2023-04-20T04:29:45.169Z,100490.53
2023-04-20T04:32:15.329Z,100490.13
2023-04-20T04:34:46.153Z,100506.69
2023-04-20T04:37:17.147Z,100502.66
2023-04-20T04:39:48.341Z,100506.31
2023-04-20T04:42:18.511Z,100510.78
2023-04-20T04:44:48.091Z,100518.84
2023-04-20T04:47:22.349Z,100536.63
2023-04-20T04:49:52.652Z,100545.94
2023-04-20T04:52:22.866Z,100552.78
2023-04-20T04:54:54.983Z,100556.41
2023-04-20T04:57:25.183Z,100543.88
2023-04-20T04:59:55.718Z,100543.88
2023-04-20T05:02:26.168Z,100544.72
2023-04-20T05:04:56.582Z,100550.75
2023-04-20T05:07:26.761Z,100555.19
2023-04-20T05:09:58.722Z,100566.50
2023-04-20T05:12:28.446Z,100561.69
2023-04-20T05:14:58.061Z,100554.81
2023-04-20T05:17:28.276Z,100557.66
2023-04-20T05:19:58.058Z,100557.66
2023-04-20T05:22:28.254Z,100548.75
2023-04-20T05:24:59.291Z,100545.53
2023-04-20T05:27:29.195Z,100541.13
2023-04-20T05:30:09.499Z,100538.31
2023-04-20T05:32:51.898Z,100529.41
2023-04-20T05:35:23.098Z,100545.19
2023-04-20T05:37:53.245Z,100548.88
2023-04-20T05:40:24.583Z,100542.41
2023-04-20T05:42:54.769Z,100558.16
2023-04-20T05:45:25.023Z,100547.28
2023-04-20T05:47:59.156Z,100554.56
2023-04-20T05:50:30.257Z,100565.50
2023-04-20T05:53:00.443Z,100578.44
2023-04-20T05:55:32.296Z,100575.59
2023-04-20T05:58:02.683Z,100580.06
2023-04-20T06:00:32.471Z,100591.38
2023-04-20T06:03:02.544Z,100601.50
2023-04-20T06:05:32.444Z,100607.94
2023-04-20T06:08:02.182Z,100603.53
2023-04-20T06:10:35.069Z,100607.59
2023-04-20T06:13:04.796Z,100616.88
2023-04-20T06:15:35.070Z,100614.88
2023-04-20T06:18:05.499Z,100615.69
2023-04-20T06:20:35.718Z,100608.00
2023-04-20T06:23:05.947Z,100620.53
2023-04-20T06:25:39.382Z,100614.06
2023-04-20T06:28:09.835Z,100613.25
2023-04-20T06:30:39.994Z,100605.97
2023-04-20T06:33:12.269Z,100614.47
2023-04-20T06:35:43.291Z,100610.44
2023-04-20T06:38:12.792Z,100617.31
2023-04-20T06:40:44.904Z,100611.66
2023-04-20T06:43:15.438Z,100615.75
2023-04-20T06:45:45.079Z,100637.19
2023-04-20T06:48:30.949Z,100644.88
2023-04-20T06:51:01.915Z,100648.94
2023-04-20T06:53:32.324Z,100642.47
2023-04-20T06:56:05.300Z,100645.28
2023-04-20T06:58:35.502Z,100649.75
2023-04-20T07:01:05.532Z,100662.28
2023-04-20T07:03:35.666Z,100657.81
2023-04-20T07:06:07.451Z,100659.44
2023-04-20T07:08:36.981Z,100663.88
2023-04-20T07:11:09.631Z,100667.06
2023-04-20T07:13:39.579Z,100647.66
2023-04-20T07:16:10.545Z,100651.69
2023-04-20T07:18:40.189Z,100646.03
2023-04-20T07:21:10.147Z,100657.38
2023-04-20T07:23:40.589Z,100643.22
2023-04-20T07:26:13.373Z,100633.53
2023-04-20T07:28:43.309Z,100639.19
2023-04-20T07:31:13.511Z,100651.72
2023-04-20T07:33:43.996Z,100657.00
2023-04-20T07:36:13.799Z,100658.22
2023-04-20T07:38:44.306Z,100652.56
2023-04-20T07:41:16.557Z,100661.03
2023-04-20T07:43:47.165Z,100665.06
2023-04-20T07:46:23.246Z,100658.22
2023-04-20T07:48:53.599Z,100662.66
2023-04-20T07:51:33.304Z,100671.97
2023-04-20T07:54:03.784Z,100656.63
2023-04-20T07:56:36.217Z,100656.28
2023-04-20T07:59:06.472Z,100652.69
2023-04-20T08:01:37.364Z,100658.34
2023-04-20T08:04:07.427Z,100651.88
2023-04-20T08:06:37.703Z,100655.94
2023-04-20T08:09:07.525Z,100653.94
2023-04-20T08:11:39.454Z,100654.81
2023-04-20T08:14:09.647Z,100655.63
2023-04-20T08:16:40.113Z,100664.53
2023-04-20T08:19:12.357Z,100658.50
2023-04-20T08:21:43.883Z,100655.69
2023-04-20T08:24:14.664Z,100653.28
2023-04-20T08:26:46.839Z,100649.25
2023-04-20T08:29:17.228Z,100654.94
2023-04-20T08:31:49.050Z,100653.34
2023-04-20T08:34:20.334Z,100654.56
2023-04-20T08:36:51.282Z,100654.97
2023-04-20T08:39:24.577Z,100651.72
2023-04-20T08:41:58.721Z,100646.84
2023-04-20T08:44:29.664Z,100647.25
2023-04-20T08:46:59.849Z,100652.13
2023-04-20T08:49:31.662Z,100650.50
2023-04-20T08:52:01.781Z,100647.25
2023-04-20T08:54:32.626Z,100658.19
2023-04-20T08:57:06.830Z,100651.72
2023-04-20T08:59:39.598Z,100647.25
2023-04-20T09:02:14.131Z,100654.13
2023-04-20T09:04:49.419Z,100639.13
2023-04-20T09:07:24.675Z,100636.31
2023-04-20T09:09:58.843Z,100650.88
2023-04-20T09:12:30.731Z,100645.63
2023-04-20T09:15:00.987Z,100645.22
2023-04-20T09:17:36.461Z,100646.84
2023-04-20T09:20:08.960Z,100651.72
2023-04-20T09:22:40.913Z,100653.72
2023-04-20T09:25:17.617Z,100648.06
2023-04-20T09:27:59.127Z,100639.56
2023-04-20T09:30:40.063Z,100645.63
2023-04-20T09:33:12.874Z,100656.16
2023-04-20T09:35:45.109Z,100654.13
2023-04-20T09:38:19.443Z,100650.09
2023-04-20T09:40:49.976Z,100646.44
2023-04-20T09:43:30.013Z,100646.06
2023-04-20T09:46:00.544Z,100637.56
2023-04-20T09:48:32.156Z,100651.31
2023-04-20T09:51:05.621Z,100639.19
2023-04-20T09:53:37.484Z,100648.47
2023-04-20T09:56:09.368Z,100655.34
2023-04-20T09:58:42.589Z,100652.94
2023-04-20T10:01:14.140Z,100646.84
2023-04-20T10:03:44.820Z,100650.09
2023-04-20T10:06:25.912Z,100652.91
2023-04-20T10:08:56.325Z,100654.94
2023-04-20T10:11:41.093Z,100659.38
2023-04-20T10:14:23.474Z,100647.25
2023-04-20T10:17:03.889Z,100645.22
2023-04-20T10:19:42.590Z,100639.16
2023-04-20T10:22:15.058Z,100640.75
2023-04-20T10:24:44.805Z,100639.19
2023-04-20T10:27:22.648Z,100642.00
2023-04-20T10:29:55.166Z,100642.81
2023-04-20T10:32:27.248Z,100641.59
2023-04-20T10:35:09.690Z,100647.69
2023-04-20T10:37:51.480Z,100643.66
2023-04-20T10:40:29.406Z,100633.09
2023-04-20T10:42:59.924Z,100650.94
2023-04-20T10:45:40.550Z,100640.41
2023-04-20T10:48:15.465Z,100635.94
2023-04-20T10:50:47.891Z,100639.97
2023-04-20T10:53:24.295Z,100636.34
2023-04-20T10:56:04.015Z,100647.28
2023-04-20T10:58:33.696Z,100644.03
2023-04-20T11:01:07.512Z,100645.63
2023-04-20T11:03:37.421Z,100636.72
2023-04-20T11:06:07.968Z,100646.44
2023-04-20T11:08:43.970Z,100650.09
2023-04-20T11:11:25.760Z,100642.38
2023-04-20T11:14:07.640Z,100654.94
2023-04-20T11:16:51.408Z,100648.47
2023-04-20T11:19:34.241Z,100654.53
2023-04-20T11:22:08.846Z,100642.38
2023-04-20T11:24:41.534Z,100638.75
2023-04-20T11:27:22.442Z,100631.84
2023-04-20T11:30:00.187Z,100632.25
2023-04-20T11:32:31.545Z,100626.59
2023-04-20T11:35:06.832Z,100627.00
2023-04-20T11:37:51.613Z,100632.25
2023-04-20T11:40:22.378Z,100630.63
2023-04-20T11:42:52.342Z,100631.81
2023-04-20T11:45:22.596Z,100625.34
2023-04-20T11:47:55.336Z,100627.38
2023-04-20T11:50:25.635Z,100629.41
2023-04-20T11:52:55.669Z,100632.22
2023-04-20T11:55:26.000Z,100641.53
2023-04-20T11:57:56.160Z,100647.19
2023-04-20T12:00:26.758Z,100635.88
2023-04-20T12:03:00.461Z,100631.41
2023-04-20T12:05:31.910Z,100630.59
2023-04-20T12:08:01.622Z,100629.41
2023-04-20T12:10:31.869Z,100621.69
2023-04-20T12:13:02.084Z,100617.66
2023-04-20T12:15:32.463Z,100615.63
2023-04-20T12:18:03.893Z,100610.34
2023-04-20T12:20:34.149Z,100623.72
2023-04-20T12:23:04.501Z,100624.09
2023-04-20T12:25:34.707Z,100623.69
2023-04-20T12:28:07.803Z,100617.63
2023-04-20T12:30:38.216Z,100613.19
2023-04-20T12:33:11.178Z,100611.56
2023-04-20T12:35:40.906Z,100606.69
2023-04-20T12:38:13.998Z,100603.06
2023-04-20T12:40:44.352Z,100593.31
2023-04-20T12:43:13.953Z,100607.47
2023-04-20T12:45:44.328Z,100601.81
2023-04-20T12:48:16.343Z,100606.66
2023-04-20T12:50:46.836Z,100605.03
2023-04-20T12:53:17.365Z,100602.22
2023-04-20T12:55:49.576Z,100610.72
2023-04-20T12:58:23.382Z,100603.41
2023-04-20T13:00:53.604Z,100599.78
2023-04-20T13:03:26.074Z,100598.97
2023-04-20T13:05:55.957Z,100597.34
2023-04-20T13:08:26.424Z,100587.22
2023-04-20T13:10:56.338Z,100598.13
2023-04-20T13:13:26.653Z,100594.47
2023-04-20T13:15:56.598Z,100589.22
2023-04-20T13:18:28.684Z,100588.78
2023-04-20T13:20:59.140Z,100578.69
2023-04-20T13:23:29.418Z,100580.72
2023-04-20T13:26:01.886Z,100578.25
2023-04-20T13:28:31.984Z,100573.00
2023-04-20T13:31:02.557Z,100577.88
2023-04-20T13:33:36.285Z,100576.25
2023-04-20T13:36:07.000Z,100573.78
2023-04-20T13:38:37.494Z,100580.66
2023-04-20T13:41:08.367Z,100581.06
2023-04-20T13:43:38.432Z,100583.47
2023-04-20T13:46:08.578Z,100579.44
2023-04-20T13:48:40.942Z,100576.59
2023-04-20T13:51:10.901Z,100587.50
2023-04-20T13:53:41.910Z,100590.75
2023-04-20T13:56:12.345Z,100589.13
2023-04-20T13:58:42.611Z,100581.84
2023-04-20T14:01:14.645Z,100582.25
2023-04-20T14:03:46.439Z,100578.59
2023-04-20T14:06:16.752Z,100570.91
2023-04-20T14:08:46.892Z,100571.69
2023-04-20T14:11:17.268Z,100574.88
2023-04-20T14:13:47.418Z,100572.88
2023-04-20T14:16:17.292Z,100576.47
2023-04-20T14:18:49.261Z,100583.34
2023-04-20T14:21:19.672Z,100575.63
2023-04-20T14:23:53.693Z,100576.03
2023-04-20T14:26:24.068Z,100580.09
2023-04-20T14:28:54.305Z,100574.81
2023-04-20T14:31:24.621Z,100578.88
2023-04-20T14:33:57.015Z,100563.50
2023-04-20T14:36:27.324Z,100575.56
2023-04-20T14:38:57.086Z,100570.31
2023-04-20T14:41:26.825Z,100580.00
2023-04-20T14:43:56.572Z,100564.22
2023-04-20T14:46:26.641Z,100568.66
2023-04-20T14:48:59.718Z,100568.25
2023-04-20T14:51:31.354Z,100564.19
2023-04-20T14:54:01.258Z,100575.88
2023-04-20T14:56:30.975Z,100572.25
2023-04-20T14:59:01.592Z,100577.50
2023-04-20T15:01:31.884Z,100572.25
2023-04-20T15:04:04.350Z,100575.44
2023-04-20T15:06:34.900Z,100579.88
2023-04-20T15:09:05.247Z,100578.25
2023-04-20T15:11:35.909Z,100581.50
2023-04-20T15:14:06.060Z,100577.44
2023-04-20T15:16:36.356Z,100573.78
2023-04-20T15:19:07.711Z,100572.56
2023-04-20T15:21:37.920Z,100571.72
2023-04-20T15:24:08.950Z,100568.50
2023-04-20T15:26:39.241Z,100577.38
2023-04-20T15:29:09.567Z,100581.41
2023-04-20T15:31:40.761Z,100588.25
2023-04-20T15:34:15.810Z,100581.81
2023-04-20T15:36:46.263Z,100589.06
2023-04-20T15:39:16.607Z,100589.44
2023-04-20T15:41:46.846Z,100588.63
2023-04-20T15:44:16.992Z,100591.47
2023-04-20T15:46:47.139Z,100587.41
2023-04-20T15:49:20.520Z,100591.44
2023-04-20T15:51:50.790Z,100593.84
2023-04-20T15:54:24.051Z,100588.59
2023-04-20T15:56:54.169Z,100584.50
2023-04-20T15:59:23.912Z,100584.09
2023-04-20T16:01:53.844Z,100590.97
2023-04-20T16:04:26.362Z,100599.41
2023-04-20T16:06:56.302Z,100587.66
2023-04-20T16:09:26.251Z,100603.78
2023-04-20T16:11:56.039Z,100597.72
2023-04-20T16:14:26.470Z,100594.06
2023-04-20T16:16:56.661Z,100579.53
2023-04-20T16:19:29.050Z,100597.69
2023-04-20T16:21:59.338Z,100602.94
2023-04-20T16:24:29.060Z,100607.75
2023-04-20T16:27:01.517Z,100598.06
2023-04-20T16:29:32.242Z,100615.78
2023-04-20T16:32:02.459Z,100604.44
2023-04-20T16:34:33.665Z,100601.19
2023-04-20T16:37:03.959Z,100603.63
2023-04-20T16:39:34.080Z,100606.00
2023-04-20T16:42:04.388Z,100610.41
2023-04-20T16:44:34.258Z,100618.09
2023-04-20T16:47:04.232Z,100623.31
2023-04-20T16:49:38.165Z,100605.94
2023-04-20T16:52:09.523Z,100617.19
2023-04-20T16:54:40.502Z,100618.00
2023-04-20T16:57:11.432Z,100611.09
2023-04-20T16:59:42.561Z,100619.53
2023-04-20T17:02:13.279Z,100624.75
2023-04-20T17:04:44.990Z,100613.84
2023-04-20T17:07:15.469Z,100618.25
2023-04-20T17:09:45.745Z,100625.09
2023-04-20T17:12:15.961Z,100628.31
2023-04-20T17:14:46.329Z,100632.34
2023-04-20T17:17:16.540Z,100632.34
2023-04-20T17:19:48.246Z,100632.34
2023-04-20T17:22:18.597Z,100628.25
2023-04-20T17:24:48.357Z,100627.84
2023-04-20T17:27:18.473Z,100625.84
2023-04-20T17:29:48.525Z,100633.88
2023-04-20T17:32:18.776Z,100628.59
2023-04-20T17:34:51.789Z,100632.59
2023-04-20T17:37:23.382Z,100634.56
2023-04-20T17:39:53.841Z,100638.19
2023-04-20T17:42:24.193Z,100642.56
2023-04-20T17:44:54.913Z,100643.72
2023-04-20T17:47:25.278Z,100647.34
2023-04-20T17:50:00.216Z,100654.13
2023-04-20T17:52:30.702Z,100656.53
2023-04-20T17:55:02.324Z,100658.13
2023-04-20T17:57:32.475Z,100664.94
2023-04-20T18:00:02.564Z,100664.50
2023-04-20T18:02:32.154Z,100669.34
2023-04-20T18:05:04.407Z,100674.56
2023-04-20T18:07:35.031Z,100673.75
2023-04-20T18:10:06.366Z,100675.75
2023-04-20T18:12:36.653Z,100678.94
2023-04-20T18:15:08.511Z,100680.16
2023-04-20T18:17:38.936Z,100680.97
2023-04-20T18:20:13.789Z,100683.00
2023-04-20T18:22:43.484Z,100682.16
2023-04-20T18:25:13.751Z,100689.00
2023-04-20T18:27:43.745Z,100689.00
2023-04-20T18:30:14.225Z,100693.84
2023-04-20T18:32:44.796Z,100700.69
2023-04-20T18:35:16.973Z,100697.03
2023-04-20T18:37:46.998Z,100705.50
2023-04-20T18:40:17.719Z,100706.72
2023-04-20T18:42:48.113Z,100701.44
2023-04-20T18:45:18.001Z,100705.44
2023-04-20T18:47:48.566Z,100702.19
2023-04-20T18:50:19.990Z,100702.19
2023-04-20T18:52:50.324Z,100711.44
2023-04-20T18:55:20.740Z,100711.78
2023-04-20T18:57:50.912Z,100707.38
2023-04-20T19:00:21.774Z,100707.75
2023-04-20T19:02:52.003Z,100714.56
2023-04-20T19:05:23.795Z,100712.94
2023-04-20T19:07:53.897Z,100717.78
2023-04-20T19:10:23.710Z,100716.94
2023-04-20T19:12:53.919Z,100719.78
2023-04-20T19:15:26.083Z,100726.63
2023-04-20T19:17:58.091Z,100721.78
2023-04-20T19:20:30.247Z,100727.81
2023-04-20T19:23:00.393Z,100721.75
2023-04-20T19:25:30.711Z,100724.56
2023-04-20T19:28:01.067Z,100732.19
2023-04-20T19:30:31.299Z,100730.59
2023-04-20T19:33:02.791Z,100727.78
2023-04-20T19:35:34.059Z,100726.91
2023-04-20T19:38:03.763Z,100726.91
2023-04-20T19:40:33.992Z,100731.75
2023-04-20T19:43:03.924Z,100728.94
2023-04-20T19:45:34.181Z,100734.56
2023-04-20T19:48:04.583Z,100737.41
2023-04-20T19:50:36.888Z,100736.56
2023-04-20T19:53:07.752Z,100750.66
2023-04-20T19:55:37.515Z,100743.03
2023-04-20T19:58:10.997Z,100745.03
2023-04-20T20:00:41.637Z,100739.78
2023-04-20T20:03:12.844Z,100735.72
2023-04-20T20:05:44.998Z,100734.88
2023-04-20T20:08:15.554Z,100733.66
2023-04-20T20:10:45.791Z,100732.41
2023-04-20T20:13:16.345Z,100741.22
2023-04-20T20:15:47.469Z,100750.88
2023-04-20T20:18:18.100Z,100735.16
2023-04-20T20:20:54.452Z,100742.00
2023-04-20T20:23:24.728Z,100744.38
2023-04-20T20:25:54.888Z,100737.50
2023-04-20T20:28:25.096Z,100738.69
2023-04-20T20:30:55.311Z,100741.50
2023-04-20T20:33:26.434Z,100742.69
2023-04-20T20:35:58.379Z,100745.50
2023-04-20T20:38:31.388Z,100749.53
2023-04-20T20:41:02.048Z,100755.56
2023-04-20T20:43:32.380Z,100752.72
2023-04-20T20:46:02.569Z,100759.16
2023-04-20T20:48:33.138Z,100758.78
2023-04-20T20:51:05.463Z,100757.59
2023-04-20T20:53:35.182Z,100754.78
2023-04-20T20:56:05.534Z,100746.31
2023-04-20T20:58:35.909Z,100754.78
2023-04-20T21:01:05.983Z,100748.34
2023-04-20T21:03:36.585Z,100751.16
2023-04-20T21:06:09.113Z,100749.13
2023-04-20T21:08:38.671Z,100760.41
2023-04-20T21:11:10.196Z,100750.31
2023-04-20T21:13:40.407Z,100748.34
2023-04-20T21:16:10.767Z,100745.50
2023-04-20T21:18:40.673Z,100742.25
2023-04-20T21:21:15.616Z,100748.69
2023-04-20T21:23:45.805Z,100749.47
2023-04-20T21:26:16.614Z,100747.84
2023-04-20T21:28:47.125Z,100742.94
2023-04-20T21:31:17.396Z,100740.13
2023-04-20T21:33:47.561Z,100738.88
2023-04-20T21:36:19.613Z,100746.50
2023-04-20T21:38:49.928Z,100746.09
2023-04-20T21:41:19.990Z,100742.44
2023-04-20T21:43:49.759Z,100744.47
2023-04-20T21:46:20.021Z,100738.00
2023-04-20T21:48:50.424Z,100740.00
2023-04-20T21:51:22.934Z,100737.19
2023-04-20T21:53:53.413Z,100729.91
2023-04-20T21:56:23.679Z,100727.91
2023-04-20T21:58:53.996Z,100724.28
2023-04-20T22:01:24.401Z,100725.09
2023-04-20T22:03:55.220Z,100720.28
2023-04-20T22:06:27.430Z,100719.09
2023-04-20T22:09:00.413Z,100728.34
2023-04-20T22:11:30.187Z,100721.53
2023-04-20T22:14:00.844Z,100711.88
2023-04-20T22:16:34.309Z,100716.31
2023-04-20T22:19:04.835Z,100722.75
2023-04-20T22:21:36.558Z,100711.13
2023-04-20T22:24:07.200Z,100704.28
2023-04-20T22:26:37.488Z,100703.47
2023-04-20T22:29:07.409Z,100698.66
2023-04-20T22:31:37.667Z,100689.00
2023-04-20T22:34:08.118Z,100680.56
2023-04-20T22:36:40.570Z,100680.16
2023-04-20T22:39:10.195Z,100674.53
2023-04-20T22:41:40.826Z,100666.06
2023-04-20T22:44:11.127Z,100673.69
2023-04-20T22:46:41.166Z,100666.84
2023-04-20T22:49:11.383Z,100668.88
2023-04-20T22:51:43.596Z,100652.75
2023-04-20T22:54:13.204Z,100660.41
2023-04-20T22:56:42.959Z,100653.94
2023-04-20T22:59:13.108Z,100664.03
2023-04-20T23:01:43.386Z,100668.88
2023-04-20T23:04:13.703Z,100668.88
2023-04-20T23:06:46.049Z,100665.22
2023-04-20T23:09:20.963Z,100669.28
2023-04-20T23:11:51.571Z,100675.72
2023-04-20T23:14:22.840Z,100665.63
2023-04-20T23:16:53.449Z,100672.09
2023-04-20T23:19:23.598Z,100669.28
2023-04-20T23:21:55.606Z,100665.63
2023-04-20T23:24:25.258Z,100671.25
2023-04-20T23:26:55.593Z,100658.00
2023-04-20T23:29:25.267Z,100657.16
2023-04-20T23:31:55.545Z,100657.16
2023-04-20T23:34:25.834Z,100655.16
2023-04-20T23:36:57.557Z,100655.97
2023-04-20T23:39:27.807Z,100657.16
2023-04-20T23:41:58.274Z,100663.19
2023-04-20T23:44:28.314Z,100651.09
2023-04-20T23:46:58.572Z,100647.47
2023-04-20T23:49:28.845Z,100655.09
2023-04-20T23:52:00.773Z,100661.56
2023-04-20T23:54:33.240Z,100652.66
2023-04-20T23:57:03.691Z,100659.50
2023-04-20T23:59:34.361Z,100660.69
